sensor_id;sensor_type;location;lat;lon;timestamp;P1;durP1;ratioP1;P2;durP2;ratioP2
73266;SDS011;61495;53.400;7.608;2022-09-12T00:01:12;7.30;;;4.43;;
73266;SDS011;61495;53.400;7.608;2022-09-12T00:03:39;9.65;;;5.05;;
73266;SDS011;61495;53.400;7.608;2022-09-12T00:06:09;8.63;;;5.25;;
73266;SDS011;61495;53.400;7.608;2022-09-12T00:08:40;10.77;;;6.25;;
73266;SDS011;61495;53.400;7.608;2022-09-12T00:11:06;9.52;;;5.68;;
73266;SDS011;61495;53.400;7.608;2022-09-12T00:13:34;8.95;;;5.68;;
73266;SDS011;61495;53.400;7.608;2022-09-12T00:16:00;10.20;;;5.82;;
73266;SDS011;61495;53.400;7.608;2022-09-12T00:18:25;8.75;;;4.85;;
73266;SDS011;61495;53.400;7.608;2022-09-12T00:20:51;9.25;;;4.93;;
73266;SDS011;61495;53.400;7.608;2022-09-12T00:23:16;8.88;;;5.22;;
73266;SDS011;61495;53.400;7.608;2022-09-12T00:25:42;9.57;;;5.80;;
73266;SDS011;61495;53.400;7.608;2022-09-12T00:28:10;11.52;;;5.65;;
73266;SDS011;61495;53.400;7.608;2022-09-12T00:30:42;10.40;;;5.88;;
73266;SDS011;61495;53.400;7.608;2022-09-12T00:33:10;9.93;;;6.05;;
73266;SDS011;61495;53.400;7.608;2022-09-12T00:35:49;11.45;;;6.45;;
73266;SDS011;61495;53.400;7.608;2022-09-12T00:38:17;12.43;;;6.93;;
73266;SDS011;61495;53.400;7.608;2022-09-12T00:40:43;11.23;;;6.65;;
73266;SDS011;61495;53.400;7.608;2022-09-12T00:43:12;10.23;;;5.55;;
73266;SDS011;61495;53.400;7.608;2022-09-12T00:45:56;10.50;;;6.15;;
73266;SDS011;61495;53.400;7.608;2022-09-12T00:48:32;11.43;;;6.30;;
73266;SDS011;61495;53.400;7.608;2022-09-12T00:51:03;10.88;;;6.18;;
73266;SDS011;61495;53.400;7.608;2022-09-12T00:53:28;11.30;;;6.28;;
73266;SDS011;61495;53.400;7.608;2022-09-12T00:55:54;11.77;;;6.80;;
73266;SDS011;61495;53.400;7.608;2022-09-12T00:58:26;12.30;;;6.90;;
73266;SDS011;61495;53.400;7.608;2022-09-12T01:00:54;12.98;;;6.95;;
73266;SDS011;61495;53.400;7.608;2022-09-12T01:03:21;12.05;;;6.93;;
73266;SDS011;61495;53.400;7.608;2022-09-12T01:08:22;12.10;;;6.90;;
73266;SDS011;61495;53.400;7.608;2022-09-12T01:10:51;13.13;;;6.90;;
73266;SDS011;61495;53.400;7.608;2022-09-12T01:13:16;11.93;;;6.50;;
73266;SDS011;61495;53.400;7.608;2022-09-12T01:15:42;10.75;;;5.85;;
73266;SDS011;61495;53.400;7.608;2022-09-12T01:18:10;13.07;;;7.20;;
73266;SDS011;61495;53.400;7.608;2022-09-12T01:34:45;8.38;;;4.78;;
73266;SDS011;61495;53.400;7.608;2022-09-12T01:42:53;12.93;;;7.43;;
73266;SDS011;61495;53.400;7.608;2022-09-12T01:45:29;12.45;;;7.10;;
73266;SDS011;61495;53.400;7.608;2022-09-12T01:53:27;12.85;;;7.30;;
73266;SDS011;61495;53.400;7.608;2022-09-12T01:56:13;11.70;;;6.95;;
73266;SDS011;61495;53.400;7.608;2022-09-12T01:58:57;14.45;;;8.90;;
73266;SDS011;61495;53.400;7.608;2022-09-12T02:01:52;12.23;;;7.20;;
73266;SDS011;61495;53.400;7.608;2022-09-12T02:04:25;13.70;;;7.70;;
73266;SDS011;61495;53.400;7.608;2022-09-12T02:07:02;12.75;;;7.63;;
73266;SDS011;61495;53.400;7.608;2022-09-12T02:09:36;13.05;;;7.22;;
73266;SDS011;61495;53.400;7.608;2022-09-12T02:12:10;11.85;;;6.65;;
73266;SDS011;61495;53.400;7.608;2022-09-12T02:14:42;13.23;;;7.68;;
73266;SDS011;61495;53.400;7.608;2022-09-12T02:17:19;12.23;;;7.53;;
73266;SDS011;61495;53.400;7.608;2022-09-12T02:20:33;12.60;;;7.97;;
73266;SDS011;61495;53.400;7.608;2022-09-12T02:22:40;13.98;;;7.82;;
73266;SDS011;61495;53.400;7.608;2022-09-12T02:25:09;11.60;;;6.88;;
73266;SDS011;61495;53.400;7.608;2022-09-12T02:30:38;12.73;;;7.57;;
73266;SDS011;61495;53.400;7.608;2022-09-12T02:33:13;13.60;;;6.93;;
73266;SDS011;61495;53.400;7.608;2022-09-12T02:38:35;12.75;;;7.45;;
73266;SDS011;61495;53.400;7.608;2022-09-12T02:41:08;12.63;;;6.28;;
73266;SDS011;61495;53.400;7.608;2022-09-12T02:43:35;12.07;;;7.10;;
73266;SDS011;61495;53.400;7.608;2022-09-12T02:46:03;13.30;;;7.63;;
73266;SDS011;61495;53.400;7.608;2022-09-12T02:48:33;14.63;;;7.70;;
73266;SDS011;61495;53.400;7.608;2022-09-12T02:51:03;12.45;;;7.18;;
73266;SDS011;61495;53.400;7.608;2022-09-12T02:53:29;14.77;;;7.35;;
73266;SDS011;61495;53.400;7.608;2022-09-12T02:55:55;12.73;;;6.97;;
73266;SDS011;61495;53.400;7.608;2022-09-12T02:58:21;13.10;;;7.43;;
73266;SDS011;61495;53.400;7.608;2022-09-12T03:12:15;13.05;;;6.97;;
73266;SDS011;61495;53.400;7.608;2022-09-12T03:23:28;12.10;;;6.72;;
73266;SDS011;61495;53.400;7.608;2022-09-12T03:26:04;13.38;;;6.82;;
73266;SDS011;61495;53.400;7.608;2022-09-12T03:28:35;12.60;;;7.15;;
73266;SDS011;61495;53.400;7.608;2022-09-12T03:31:16;13.45;;;8.25;;
73266;SDS011;61495;53.400;7.608;2022-09-12T03:33:44;12.23;;;6.85;;
73266;SDS011;61495;53.400;7.608;2022-09-12T03:36:20;12.95;;;7.18;;
73266;SDS011;61495;53.400;7.608;2022-09-12T03:38:48;13.90;;;8.18;;
73266;SDS011;61495;53.400;7.608;2022-09-12T03:41:13;12.10;;;7.18;;
73266;SDS011;61495;53.400;7.608;2022-09-12T03:43:39;14.18;;;7.90;;
73266;SDS011;61495;53.400;7.608;2022-09-12T03:46:04;13.57;;;7.22;;
73266;SDS011;61495;53.400;7.608;2022-09-12T03:48:30;13.52;;;7.93;;
73266;SDS011;61495;53.400;7.608;2022-09-12T03:50:58;16.27;;;8.40;;
73266;SDS011;61495;53.400;7.608;2022-09-12T03:53:33;13.13;;;7.85;;
73266;SDS011;61495;53.400;7.608;2022-09-12T03:56:00;12.45;;;7.68;;
73266;SDS011;61495;53.400;7.608;2022-09-12T03:58:30;14.43;;;8.48;;
73266;SDS011;61495;53.400;7.608;2022-09-12T04:00:56;13.27;;;7.72;;
73266;SDS011;61495;53.400;7.608;2022-09-12T04:03:21;13.52;;;8.02;;
73266;SDS011;61495;53.400;7.608;2022-09-12T04:05:46;13.68;;;8.48;;
73266;SDS011;61495;53.400;7.608;2022-09-12T04:08:12;12.73;;;7.85;;
73266;SDS011;61495;53.400;7.608;2022-09-12T04:10:38;13.70;;;8.05;;
73266;SDS011;61495;53.400;7.608;2022-09-12T04:13:04;15.93;;;8.93;;
73266;SDS011;61495;53.400;7.608;2022-09-12T04:15:29;13.93;;;8.13;;
73266;SDS011;61495;53.400;7.608;2022-09-12T04:17:55;13.88;;;7.93;;
73266;SDS011;61495;53.400;7.608;2022-09-12T04:20:20;14.00;;;7.72;;
73266;SDS011;61495;53.400;7.608;2022-09-12T04:22:45;14.82;;;8.25;;
73266;SDS011;61495;53.400;7.608;2022-09-12T04:25:11;15.40;;;8.68;;
73266;SDS011;61495;53.400;7.608;2022-09-12T04:27:37;13.55;;;8.63;;
73266;SDS011;61495;53.400;7.608;2022-09-12T04:30:03;16.38;;;8.98;;
73266;SDS011;61495;53.400;7.608;2022-09-12T04:32:29;14.95;;;8.60;;
73266;SDS011;61495;53.400;7.608;2022-09-12T04:34:55;13.75;;;7.97;;
73266;SDS011;61495;53.400;7.608;2022-09-12T04:37:21;15.75;;;8.93;;
73266;SDS011;61495;53.400;7.608;2022-09-12T04:39:47;15.45;;;8.85;;
73266;SDS011;61495;53.400;7.608;2022-09-12T04:42:13;14.25;;;8.35;;
73266;SDS011;61495;53.400;7.608;2022-09-12T04:44:39;13.52;;;7.97;;
73266;SDS011;61495;53.400;7.608;2022-09-12T04:47:04;15.80;;;8.70;;
73266;SDS011;61495;53.400;7.608;2022-09-12T04:49:30;15.88;;;9.63;;
73266;SDS011;61495;53.400;7.608;2022-09-12T04:51:55;15.43;;;8.63;;
73266;SDS011;61495;53.400;7.608;2022-09-12T04:54:21;16.02;;;10.20;;
73266;SDS011;61495;53.400;7.608;2022-09-12T04:56:48;14.77;;;9.73;;
73266;SDS011;61495;53.400;7.608;2022-09-12T04:59:15;15.70;;;9.02;;
73266;SDS011;61495;53.400;7.608;2022-09-12T05:01:41;16.63;;;9.23;;
73266;SDS011;61495;53.400;7.608;2022-09-12T05:04:08;14.63;;;8.85;;
73266;SDS011;61495;53.400;7.608;2022-09-12T05:06:34;14.48;;;8.85;;
73266;SDS011;61495;53.400;7.608;2022-09-12T05:09:01;14.20;;;9.15;;
73266;SDS011;61495;53.400;7.608;2022-09-12T05:11:29;17.23;;;10.60;;
73266;SDS011;61495;53.400;7.608;2022-09-12T05:13:56;17.40;;;9.60;;
73266;SDS011;61495;53.400;7.608;2022-09-12T05:16:23;16.27;;;9.93;;
73266;SDS011;61495;53.400;7.608;2022-09-12T05:18:49;15.43;;;9.40;;
73266;SDS011;61495;53.400;7.608;2022-09-12T05:21:16;15.98;;;9.73;;
73266;SDS011;61495;53.400;7.608;2022-09-12T05:23:44;16.08;;;9.77;;
73266;SDS011;61495;53.400;7.608;2022-09-12T05:26:12;17.00;;;9.95;;
73266;SDS011;61495;53.400;7.608;2022-09-12T05:28:39;15.20;;;9.43;;
73266;SDS011;61495;53.400;7.608;2022-09-12T05:31:16;16.77;;;10.40;;
73266;SDS011;61495;53.400;7.608;2022-09-12T05:33:44;16.77;;;10.15;;
73266;SDS011;61495;53.400;7.608;2022-09-12T05:36:17;17.85;;;9.85;;
73266;SDS011;61495;53.400;7.608;2022-09-12T05:38:45;15.02;;;9.60;;
73266;SDS011;61495;53.400;7.608;2022-09-12T05:41:15;18.08;;;10.15;;
73266;SDS011;61495;53.400;7.608;2022-09-12T05:43:43;17.33;;;10.10;;
73266;SDS011;61495;53.400;7.608;2022-09-12T05:46:13;15.10;;;8.98;;
73266;SDS011;61495;53.400;7.608;2022-09-12T05:48:41;15.23;;;9.50;;
73266;SDS011;61495;53.400;7.608;2022-09-12T05:51:11;16.27;;;10.02;;
73266;SDS011;61495;53.400;7.608;2022-09-12T05:53:43;17.52;;;10.60;;
73266;SDS011;61495;53.400;7.608;2022-09-12T05:56:12;16.77;;;10.02;;
73266;SDS011;61495;53.400;7.608;2022-09-12T05:58:43;17.27;;;10.10;;
73266;SDS011;61495;53.400;7.608;2022-09-12T06:01:11;18.92;;;11.13;;
73266;SDS011;61495;53.400;7.608;2022-09-12T06:03:41;18.50;;;10.52;;
73266;SDS011;61495;53.400;7.608;2022-09-12T06:06:07;17.50;;;10.30;;
73266;SDS011;61495;53.400;7.608;2022-09-12T06:08:33;17.90;;;10.77;;
73266;SDS011;61495;53.400;7.608;2022-09-12T06:11:03;18.77;;;11.57;;
73266;SDS011;61495;53.400;7.608;2022-09-12T06:13:30;20.40;;;12.48;;
73266;SDS011;61495;53.400;7.608;2022-09-12T06:16:07;21.23;;;13.02;;
73266;SDS011;61495;53.400;7.608;2022-09-12T06:18:34;21.00;;;13.05;;
73266;SDS011;61495;53.400;7.608;2022-09-12T06:21:10;21.35;;;12.18;;
73266;SDS011;61495;53.400;7.608;2022-09-12T06:23:36;22.08;;;13.45;;
73266;SDS011;61495;53.400;7.608;2022-09-12T06:26:03;20.75;;;12.65;;
73266;SDS011;61495;53.400;7.608;2022-09-12T06:28:30;21.50;;;12.88;;
73266;SDS011;61495;53.400;7.608;2022-09-12T06:31:03;22.92;;;13.63;;
73266;SDS011;61495;53.400;7.608;2022-09-12T06:33:34;23.38;;;13.02;;
73266;SDS011;61495;53.400;7.608;2022-09-12T06:36:04;22.27;;;13.38;;
73266;SDS011;61495;53.400;7.608;2022-09-12T06:38:31;22.70;;;12.98;;
73266;SDS011;61495;53.400;7.608;2022-09-12T06:40:57;23.15;;;13.57;;
73266;SDS011;61495;53.400;7.608;2022-09-12T06:43:24;23.15;;;13.63;;
73266;SDS011;61495;53.400;7.608;2022-09-12T06:45:50;21.98;;;13.05;;
73266;SDS011;61495;53.400;7.608;2022-09-12T06:48:15;22.08;;;12.73;;
73266;SDS011;61495;53.400;7.608;2022-09-12T06:50:41;21.25;;;12.65;;
73266;SDS011;61495;53.400;7.608;2022-09-12T06:53:06;22.17;;;12.75;;
73266;SDS011;61495;53.400;7.608;2022-09-12T06:55:32;20.52;;;12.02;;
73266;SDS011;61495;53.400;7.608;2022-09-12T06:57:57;24.90;;;13.82;;
73266;SDS011;61495;53.400;7.608;2022-09-12T07:00:23;21.45;;;13.23;;
73266;SDS011;61495;53.400;7.608;2022-09-12T07:02:52;22.58;;;13.27;;
73266;SDS011;61495;53.400;7.608;2022-09-12T07:05:18;22.23;;;12.13;;
73266;SDS011;61495;53.400;7.608;2022-09-12T07:07:43;20.45;;;12.45;;
73266;SDS011;61495;53.400;7.608;2022-09-12T07:10:09;20.85;;;12.60;;
73266;SDS011;61495;53.400;7.608;2022-09-12T07:12:36;23.35;;;12.90;;
73266;SDS011;61495;53.400;7.608;2022-09-12T07:15:01;19.40;;;11.98;;
73266;SDS011;61495;53.400;7.608;2022-09-12T07:17:27;20.27;;;12.23;;
73266;SDS011;61495;53.400;7.608;2022-09-12T07:19:52;22.92;;;13.18;;
73266;SDS011;61495;53.400;7.608;2022-09-12T07:22:18;21.27;;;12.05;;
73266;SDS011;61495;53.400;7.608;2022-09-12T07:24:43;22.92;;;13.45;;
73266;SDS011;61495;53.400;7.608;2022-09-12T07:27:09;21.08;;;12.98;;
73266;SDS011;61495;53.400;7.608;2022-09-12T07:29:35;20.52;;;13.35;;
73266;SDS011;61495;53.400;7.608;2022-09-12T07:32:00;21.73;;;13.75;;
73266;SDS011;61495;53.400;7.608;2022-09-12T07:34:26;21.45;;;12.80;;
73266;SDS011;61495;53.400;7.608;2022-09-12T07:36:52;22.02;;;12.55;;
73266;SDS011;61495;53.400;7.608;2022-09-12T07:39:17;20.38;;;12.50;;
73266;SDS011;61495;53.400;7.608;2022-09-12T07:41:42;22.17;;;13.43;;
73266;SDS011;61495;53.400;7.608;2022-09-12T07:44:11;21.35;;;11.57;;
73266;SDS011;61495;53.400;7.608;2022-09-12T07:46:36;24.27;;;13.93;;
73266;SDS011;61495;53.400;7.608;2022-09-12T07:49:02;21.17;;;13.50;;
73266;SDS011;61495;53.400;7.608;2022-09-12T07:51:28;26.58;;;14.55;;
73266;SDS011;61495;53.400;7.608;2022-09-12T07:53:54;22.25;;;13.80;;
73266;SDS011;61495;53.400;7.608;2022-09-12T07:56:21;23.58;;;14.50;;
73266;SDS011;61495;53.400;7.608;2022-09-12T07:58:48;25.05;;;14.32;;
73266;SDS011;61495;53.400;7.608;2022-09-12T08:03:41;25.15;;;15.50;;
73266;SDS011;61495;53.400;7.608;2022-09-12T08:06:09;24.52;;;14.20;;
73266;SDS011;61495;53.400;7.608;2022-09-12T08:08:36;23.83;;;14.98;;
73266;SDS011;61495;53.400;7.608;2022-09-12T08:11:03;22.52;;;14.18;;
73266;SDS011;61495;53.400;7.608;2022-09-12T08:13:30;22.75;;;14.18;;
73266;SDS011;61495;53.400;7.608;2022-09-12T08:15:57;25.33;;;14.18;;
73266;SDS011;61495;53.400;7.608;2022-09-12T08:18:24;25.45;;;14.52;;
73266;SDS011;61495;53.400;7.608;2022-09-12T08:20:55;23.58;;;14.15;;
73266;SDS011;61495;53.400;7.608;2022-09-12T08:23:21;26.67;;;15.55;;
73266;SDS011;61495;53.400;7.608;2022-09-12T08:25:47;25.65;;;15.48;;
73266;SDS011;61495;53.400;7.608;2022-09-12T08:28:14;25.58;;;16.08;;
73266;SDS011;61495;53.400;7.608;2022-09-12T08:30:39;27.70;;;14.90;;
73266;SDS011;61495;53.400;7.608;2022-09-12T08:33:04;24.83;;;14.88;;
73266;SDS011;61495;53.400;7.608;2022-09-12T08:35:30;27.98;;;15.10;;
73266;SDS011;61495;53.400;7.608;2022-09-12T08:37:56;25.30;;;15.90;;
73266;SDS011;61495;53.400;7.608;2022-09-12T08:40:22;24.60;;;15.13;;
73266;SDS011;61495;53.400;7.608;2022-09-12T08:42:59;23.70;;;15.00;;
73266;SDS011;61495;53.400;7.608;2022-09-12T08:45:32;23.55;;;14.43;;
73266;SDS011;61495;53.400;7.608;2022-09-12T08:48:07;24.73;;;14.90;;
73266;SDS011;61495;53.400;7.608;2022-09-12T08:50:34;24.98;;;15.00;;
73266;SDS011;61495;53.400;7.608;2022-09-12T08:53:13;22.33;;;14.25;;
73266;SDS011;61495;53.400;7.608;2022-09-12T08:55:50;24.40;;;14.88;;
73266;SDS011;61495;53.400;7.608;2022-09-12T08:58:19;22.50;;;13.43;;
73266;SDS011;61495;53.400;7.608;2022-09-12T09:03:22;22.92;;;14.20;;
73266;SDS011;61495;53.400;7.608;2022-09-12T09:09:39;21.27;;;12.93;;
73266;SDS011;61495;53.400;7.608;2022-09-12T09:17:18;22.10;;;13.93;;
73266;SDS011;61495;53.400;7.608;2022-09-12T09:20:01;21.70;;;13.27;;
73266;SDS011;61495;53.400;7.608;2022-09-12T09:22:45;23.75;;;13.52;;
73266;SDS011;61495;53.400;7.608;2022-09-12T09:25:21;22.35;;;13.20;;
73266;SDS011;61495;53.400;7.608;2022-09-12T09:27:55;19.70;;;13.02;;
73266;SDS011;61495;53.400;7.608;2022-09-12T09:30:26;21.25;;;12.25;;
73266;SDS011;61495;53.400;7.608;2022-09-12T09:32:57;18.73;;;11.35;;
73266;SDS011;61495;53.400;7.608;2022-09-12T09:43:50;19.30;;;11.10;;
73266;SDS011;61495;53.400;7.608;2022-09-12T09:46:16;19.10;;;11.25;;
73266;SDS011;61495;53.400;7.608;2022-09-12T09:48:43;17.08;;;10.38;;
73266;SDS011;61495;53.400;7.608;2022-09-12T09:51:12;17.92;;;11.75;;
73266;SDS011;61495;53.400;7.608;2022-09-12T09:53:53;17.65;;;11.43;;
73266;SDS011;61495;53.400;7.608;2022-09-12T09:56:26;17.20;;;11.05;;
73266;SDS011;61495;53.400;7.608;2022-09-12T09:59:17;16.88;;;10.25;;
73266;SDS011;61495;53.400;7.608;2022-09-12T10:04:25;14.65;;;9.57;;
73266;SDS011;61495;53.400;7.608;2022-09-12T10:06:53;15.48;;;9.27;;
73266;SDS011;61495;53.400;7.608;2022-09-12T10:09:31;15.15;;;9.15;;
73266;SDS011;61495;53.400;7.608;2022-09-12T10:11:58;16.52;;;9.77;;
73266;SDS011;61495;53.400;7.608;2022-09-12T10:17:20;15.10;;;9.27;;
73266;SDS011;61495;53.400;7.608;2022-09-12T10:19:48;14.68;;;8.18;;
73266;SDS011;61495;53.400;7.608;2022-09-12T10:22:17;14.48;;;9.18;;
73266;SDS011;61495;53.400;7.608;2022-09-12T10:24:49;13.93;;;8.82;;
73266;SDS011;61495;53.400;7.608;2022-09-12T10:27:50;14.88;;;8.80;;
73266;SDS011;61495;53.400;7.608;2022-09-12T10:30:18;14.07;;;8.63;;
73266;SDS011;61495;53.400;7.608;2022-09-12T10:32:48;13.55;;;8.35;;
73266;SDS011;61495;53.400;7.608;2022-09-12T10:37:40;16.77;;;8.57;;
73266;SDS011;61495;53.400;7.608;2022-09-12T10:40:24;13.90;;;7.60;;
73266;SDS011;61495;53.400;7.608;2022-09-12T10:42:53;12.88;;;7.57;;
73266;SDS011;61495;53.400;7.608;2022-09-12T10:47:58;12.50;;;7.60;;
73266;SDS011;61495;53.400;7.608;2022-09-12T10:50:26;14.07;;;8.85;;
73266;SDS011;61495;53.400;7.608;2022-09-12T10:52:52;14.27;;;8.18;;
73266;SDS011;61495;53.400;7.608;2022-09-12T10:55:24;12.45;;;7.90;;
73266;SDS011;61495;53.400;7.608;2022-09-12T10:58:40;12.07;;;6.97;;
73266;SDS011;61495;53.400;7.608;2022-09-12T11:00:53;12.07;;;7.72;;
73266;SDS011;61495;53.400;7.608;2022-09-12T11:06:28;12.88;;;8.18;;
73266;SDS011;61495;53.400;7.608;2022-09-12T11:17:21;10.80;;;6.72;;
73266;SDS011;61495;53.400;7.608;2022-09-12T11:23:24;11.23;;;6.32;;
73266;SDS011;61495;53.400;7.608;2022-09-12T11:34:07;10.13;;;5.38;;
73266;SDS011;61495;53.400;7.608;2022-09-12T11:36:44;8.85;;;4.70;;
73266;SDS011;61495;53.400;7.608;2022-09-12T11:39:22;7.60;;;4.43;;
73266;SDS011;61495;53.400;7.608;2022-09-12T11:42:02;6.40;;;3.63;;
73266;SDS011;61495;53.400;7.608;2022-09-12T11:44:46;5.93;;;2.95;;
73266;SDS011;61495;53.400;7.608;2022-09-12T11:47:26;6.50;;;3.55;;
73266;SDS011;61495;53.400;7.608;2022-09-12T11:49:55;5.72;;;2.92;;
73266;SDS011;61495;53.400;7.608;2022-09-12T11:52:25;6.00;;;3.50;;
73266;SDS011;61495;53.400;7.608;2022-09-12T11:55:04;5.82;;;3.00;;
73266;SDS011;61495;53.400;7.608;2022-09-12T11:57:44;6.32;;;3.53;;
73266;SDS011;61495;53.400;7.608;2022-09-12T12:02:50;5.07;;;2.85;;
73266;SDS011;61495;53.400;7.608;2022-09-12T12:05:28;7.13;;;2.67;;
73266;SDS011;61495;53.400;7.608;2022-09-12T12:08:01;6.05;;;3.20;;
73266;SDS011;61495;53.400;7.608;2022-09-12T12:13:02;8.25;;;4.97;;
73266;SDS011;61495;53.400;7.608;2022-09-12T12:15:31;6.60;;;3.20;;
73266;SDS011;61495;53.400;7.608;2022-09-12T12:20:31;6.53;;;3.80;;
73266;SDS011;61495;53.400;7.608;2022-09-12T12:22:56;8.05;;;4.00;;
73266;SDS011;61495;53.400;7.608;2022-09-12T12:25:25;8.60;;;4.43;;
73266;SDS011;61495;53.400;7.608;2022-09-12T12:28:04;6.78;;;4.18;;
73266;SDS011;61495;53.400;7.608;2022-09-12T12:36:00;7.55;;;4.97;;
73266;SDS011;61495;53.400;7.608;2022-09-12T12:38:28;8.95;;;5.22;;
73266;SDS011;61495;53.400;7.608;2022-09-12T12:43:43;9.20;;;5.15;;
73266;SDS011;61495;53.400;7.608;2022-09-12T12:46:12;9.07;;;5.20;;
73266;SDS011;61495;53.400;7.608;2022-09-12T12:51:31;11.05;;;6.55;;
73266;SDS011;61495;53.400;7.608;2022-09-12T12:53:58;10.63;;;6.03;;
73266;SDS011;61495;53.400;7.608;2022-09-12T12:56:32;11.77;;;6.43;;
73266;SDS011;61495;53.400;7.608;2022-09-12T13:01:58;8.48;;;5.63;;
73266;SDS011;61495;53.400;7.608;2022-09-12T13:04:25;11.80;;;6.18;;
73266;SDS011;61495;53.400;7.608;2022-09-12T13:07:40;8.80;;;5.78;;
73266;SDS011;61495;53.400;7.608;2022-09-12T13:09:49;12.27;;;7.05;;
73266;SDS011;61495;53.400;7.608;2022-09-12T13:12:26;11.40;;;7.25;;
73266;SDS011;61495;53.400;7.608;2022-09-12T13:14:56;9.30;;;5.88;;
73266;SDS011;61495;53.400;7.608;2022-09-12T13:17:37;8.13;;;5.10;;
73266;SDS011;61495;53.400;7.608;2022-09-12T13:22:37;9.98;;;6.07;;
73266;SDS011;61495;53.400;7.608;2022-09-12T13:27:55;9.45;;;6.07;;
73266;SDS011;61495;53.400;7.608;2022-09-12T13:30:21;8.70;;;5.35;;
73266;SDS011;61495;53.400;7.608;2022-09-12T13:32:47;9.18;;;4.80;;
73266;SDS011;61495;53.400;7.608;2022-09-12T13:35:18;8.65;;;4.80;;
73266;SDS011;61495;53.400;7.608;2022-09-12T13:37:57;5.88;;;3.88;;
73266;SDS011;61495;53.400;7.608;2022-09-12T13:40:35;6.60;;;4.28;;
73266;SDS011;61495;53.400;7.608;2022-09-12T13:43:12;7.40;;;4.60;;
73266;SDS011;61495;53.400;7.608;2022-09-12T13:45:39;9.30;;;4.93;;
73266;SDS011;61495;53.400;7.608;2022-09-12T13:48:09;8.07;;;5.00;;
73266;SDS011;61495;53.400;7.608;2022-09-12T13:50:42;6.50;;;4.20;;
73266;SDS011;61495;53.400;7.608;2022-09-12T13:53:17;8.38;;;4.32;;
73266;SDS011;61495;53.400;7.608;2022-09-12T13:55:46;6.28;;;4.28;;
73266;SDS011;61495;53.400;7.608;2022-09-12T14:01:00;7.45;;;4.63;;
73266;SDS011;61495;53.400;7.608;2022-09-12T14:03:41;9.63;;;5.03;;
73266;SDS011;61495;53.400;7.608;2022-09-12T14:06:41;8.60;;;5.07;;
73266;SDS011;61495;53.400;7.608;2022-09-12T14:09:24;11.32;;;5.72;;
73266;SDS011;61495;53.400;7.608;2022-09-12T14:11:53;7.25;;;4.45;;
73266;SDS011;61495;53.400;7.608;2022-09-12T14:14:33;9.32;;;5.70;;
73266;SDS011;61495;53.400;7.608;2022-09-12T14:17:01;8.10;;;5.25;;
73266;SDS011;61495;53.400;7.608;2022-09-12T14:19:40;8.93;;;4.72;;
73266;SDS011;61495;53.400;7.608;2022-09-12T14:22:07;7.32;;;4.80;;
73266;SDS011;61495;53.400;7.608;2022-09-12T14:24:36;9.07;;;5.40;;
73266;SDS011;61495;53.400;7.608;2022-09-12T14:27:03;7.70;;;5.20;;
73266;SDS011;61495;53.400;7.608;2022-09-12T14:29:29;8.52;;;4.78;;
73266;SDS011;61495;53.400;7.608;2022-09-12T14:32:02;7.15;;;4.90;;
73266;SDS011;61495;53.400;7.608;2022-09-12T14:34:29;7.68;;;4.57;;
73266;SDS011;61495;53.400;7.608;2022-09-12T14:36:55;8.90;;;4.90;;
73266;SDS011;61495;53.400;7.608;2022-09-12T14:39:32;8.15;;;4.53;;
73266;SDS011;61495;53.400;7.608;2022-09-12T14:42:05;7.88;;;4.70;;
73266;SDS011;61495;53.400;7.608;2022-09-12T14:44:37;6.93;;;4.47;;
73266;SDS011;61495;53.400;7.608;2022-09-12T14:47:10;8.40;;;4.72;;
73266;SDS011;61495;53.400;7.608;2022-09-12T14:49:39;7.60;;;4.90;;
73266;SDS011;61495;53.400;7.608;2022-09-12T14:52:06;7.80;;;4.43;;
73266;SDS011;61495;53.400;7.608;2022-09-12T14:54:57;8.38;;;5.63;;
73266;SDS011;61495;53.400;7.608;2022-09-12T15:00:04;10.05;;;4.85;;
73266;SDS011;61495;53.400;7.608;2022-09-12T15:02:40;6.97;;;4.30;;
73266;SDS011;61495;53.400;7.608;2022-09-12T15:07:44;7.70;;;4.63;;
73266;SDS011;61495;53.400;7.608;2022-09-12T15:10:21;7.18;;;4.63;;
73266;SDS011;61495;53.400;7.608;2022-09-12T15:15:38;9.18;;;5.10;;
73266;SDS011;61495;53.400;7.608;2022-09-12T15:18:05;8.82;;;5.00;;
73266;SDS011;61495;53.400;7.608;2022-09-12T15:20:31;7.82;;;4.68;;
73266;SDS011;61495;53.400;7.608;2022-09-12T15:22:57;9.75;;;5.53;;
73266;SDS011;61495;53.400;7.608;2022-09-12T15:25:23;9.15;;;5.03;;
73266;SDS011;61495;53.400;7.608;2022-09-12T15:27:49;7.82;;;4.88;;
73266;SDS011;61495;53.400;7.608;2022-09-12T15:30:16;8.55;;;5.05;;
73266;SDS011;61495;53.400;7.608;2022-09-12T15:32:42;6.50;;;4.55;;
73266;SDS011;61495;53.400;7.608;2022-09-12T15:35:11;8.63;;;4.85;;
73266;SDS011;61495;53.400;7.608;2022-09-12T15:37:40;7.80;;;5.40;;
73266;SDS011;61495;53.400;7.608;2022-09-12T15:40:06;6.82;;;4.75;;
73266;SDS011;61495;53.400;7.608;2022-09-12T15:42:32;10.10;;;5.40;;
73266;SDS011;61495;53.400;7.608;2022-09-12T15:44:57;9.07;;;5.30;;
73266;SDS011;61495;53.400;7.608;2022-09-12T15:47:24;7.10;;;4.78;;
73266;SDS011;61495;53.400;7.608;2022-09-12T15:49:49;8.75;;;5.22;;
73266;SDS011;61495;53.400;7.608;2022-09-12T15:52:15;10.10;;;5.70;;
73266;SDS011;61495;53.400;7.608;2022-09-12T15:54:41;8.35;;;4.68;;
73266;SDS011;61495;53.400;7.608;2022-09-12T15:57:07;7.32;;;4.70;;
73266;SDS011;61495;53.400;7.608;2022-09-12T15:59:33;6.90;;;4.32;;
73266;SDS011;61495;53.400;7.608;2022-09-12T16:01:59;8.32;;;4.97;;
73266;SDS011;61495;53.400;7.608;2022-09-12T16:04:26;7.88;;;5.13;;
73266;SDS011;61495;53.400;7.608;2022-09-12T16:06:53;7.10;;;5.03;;
73266;SDS011;61495;53.400;7.608;2022-09-12T16:09:20;7.57;;;4.35;;
73266;SDS011;61495;53.400;7.608;2022-09-12T16:11:46;6.75;;;4.70;;
73266;SDS011;61495;53.400;7.608;2022-09-12T16:14:13;6.63;;;4.40;;
73266;SDS011;61495;53.400;7.608;2022-09-12T16:16:39;6.28;;;4.18;;
73266;SDS011;61495;53.400;7.608;2022-09-12T16:19:05;7.32;;;4.45;;
73266;SDS011;61495;53.400;7.608;2022-09-12T16:21:33;6.22;;;4.07;;
73266;SDS011;61495;53.400;7.608;2022-09-12T16:23:58;6.43;;;4.07;;
73266;SDS011;61495;53.400;7.608;2022-09-12T16:26:23;6.38;;;3.60;;
73266;SDS011;61495;53.400;7.608;2022-09-12T16:28:56;7.07;;;3.95;;
73266;SDS011;61495;53.400;7.608;2022-09-12T16:31:22;6.45;;;3.60;;
73266;SDS011;61495;53.400;7.608;2022-09-12T16:33:49;5.68;;;3.70;;
73266;SDS011;61495;53.400;7.608;2022-09-12T16:36:15;5.32;;;3.53;;
73266;SDS011;61495;53.400;7.608;2022-09-12T16:38:43;6.28;;;3.85;;
73266;SDS011;61495;53.400;7.608;2022-09-12T16:41:10;5.95;;;3.40;;
73266;SDS011;61495;53.400;7.608;2022-09-12T16:43:36;5.60;;;3.47;;
73266;SDS011;61495;53.400;7.608;2022-09-12T16:46:12;6.55;;;3.85;;
73266;SDS011;61495;53.400;7.608;2022-09-12T16:48:43;8.02;;;4.25;;
73266;SDS011;61495;53.400;7.608;2022-09-12T16:53:36;6.27;;;3.50;;
73266;SDS011;61495;53.400;7.608;2022-09-12T16:56:03;6.13;;;3.63;;
73266;SDS011;61495;53.400;7.608;2022-09-12T16:58:33;7.32;;;4.05;;
73266;SDS011;61495;53.400;7.608;2022-09-12T17:03:26;7.68;;;3.55;;
73266;SDS011;61495;53.400;7.608;2022-09-12T17:06:02;7.13;;;4.15;;
73266;SDS011;61495;53.400;7.608;2022-09-12T17:08:31;7.30;;;4.10;;
73266;SDS011;61495;53.400;7.608;2022-09-12T17:10:59;9.85;;;4.80;;
73266;SDS011;61495;53.400;7.608;2022-09-12T17:13:30;7.53;;;4.50;;
73266;SDS011;61495;53.400;7.608;2022-09-12T17:15:55;7.03;;;4.32;;
73266;SDS011;61495;53.400;7.608;2022-09-12T17:18:21;9.40;;;4.38;;
73266;SDS011;61495;53.400;7.608;2022-09-12T17:20:48;7.55;;;4.53;;
73266;SDS011;61495;53.400;7.608;2022-09-12T17:23:14;8.07;;;4.20;;